createdAt,value
2023-04-09T00:01:28.386Z,21.35
2023-04-09T00:03:54.854Z,19.30
2023-04-09T00:06:21.216Z,19.88
2023-04-09T00:08:47.489Z,18.73
2023-04-09T00:11:13.744Z,21.05
2023-04-09T00:13:40.197Z,20.75
2023-04-09T00:16:07.389Z,19.60
2023-04-09T00:18:33.876Z,22.38
2023-04-09T00:21:00.611Z,21.35
2023-04-09T00:23:26.917Z,20.67
2023-04-09T00:25:53.246Z,21.83
2023-04-09T00:28:20.054Z,21.30
2023-04-09T00:30:46.320Z,19.90
2023-04-09T00:33:12.613Z,20.92
2023-04-09T00:35:38.935Z,19.60
2023-04-09T00:38:05.202Z,19.85
2023-04-09T00:40:31.535Z,20.23
2023-04-09T00:42:57.862Z,20.83
2023-04-09T00:45:24.242Z,21.10
2023-04-09T00:47:51.312Z,19.30
2023-04-09T00:50:17.725Z,21.02
2023-04-09T00:52:44.203Z,20.92
2023-04-09T00:55:10.683Z,21.67
2023-04-09T00:57:37.482Z,20.50
2023-04-09T01:00:04.663Z,20.25
2023-04-09T01:02:31.419Z,20.52
2023-04-09T01:04:57.981Z,21.90
2023-04-09T01:07:24.319Z,21.63
2023-04-09T01:09:54.408Z,21.35
2023-04-09T01:12:21.224Z,20.38
2023-04-09T01:14:56.714Z,19.80
2023-04-09T01:20:09.484Z,19.85
2023-04-09T01:22:45.095Z,20.45
2023-04-09T01:25:30.579Z,20.80
2023-04-09T01:28:14.447Z,20.80
2023-04-09T01:30:42.217Z,19.27
2023-04-09T01:33:09.193Z,20.77
2023-04-09T01:35:35.625Z,20.45
2023-04-09T01:38:03.768Z,20.80
2023-04-09T01:40:30.783Z,21.17
2023-04-09T01:42:57.344Z,21.00
2023-04-09T01:45:23.930Z,21.67
2023-04-09T01:47:50.586Z,22.35
2023-04-09T01:50:16.983Z,20.88
2023-04-09T01:52:43.417Z,22.20
2023-04-09T01:55:09.739Z,19.80
2023-04-09T01:57:36.011Z,21.45
2023-04-09T02:00:02.408Z,22.42
2023-04-09T02:02:46.330Z,21.55
2023-04-09T02:05:15.428Z,21.48
2023-04-09T02:07:46.616Z,20.98
2023-04-09T02:10:13.424Z,21.77
2023-04-09T02:12:44.673Z,19.98
2023-04-09T02:15:11.388Z,21.17
2023-04-09T02:17:37.837Z,22.23
2023-04-09T02:20:04.362Z,20.98
2023-04-09T02:22:31.036Z,21.70
2023-04-09T02:24:57.327Z,21.05
2023-04-09T02:27:23.713Z,21.90
2023-04-09T02:29:50.337Z,22.17
2023-04-09T02:32:16.657Z,21.40
2023-04-09T02:34:42.999Z,21.13
2023-04-09T02:37:09.294Z,21.90
2023-04-09T02:39:35.697Z,20.20
2023-04-09T02:42:02.275Z,20.80
2023-04-09T02:44:28.674Z,21.33
2023-04-09T02:46:55.667Z,21.67
2023-04-09T02:49:21.911Z,22.42
2023-04-09T02:51:48.265Z,22.67
2023-04-09T02:54:14.607Z,23.20
2023-04-09T02:56:40.900Z,21.00
2023-04-09T02:59:07.289Z,22.02
2023-04-09T03:01:33.637Z,21.75
2023-04-09T03:04:00.758Z,21.45
2023-04-09T03:06:27.388Z,22.83
2023-04-09T03:08:53.829Z,21.23
2023-04-09T03:11:20.192Z,21.55
2023-04-09T03:13:46.541Z,22.65
2023-04-09T03:16:12.869Z,22.42
2023-04-09T03:18:39.143Z,22.52
2023-04-09T03:21:08.797Z,20.42
2023-04-09T03:23:35.414Z,20.58
2023-04-09T03:26:05.911Z,19.35
2023-04-09T03:28:32.417Z,20.92
2023-04-09T03:30:58.801Z,22.05
2023-04-09T03:33:25.784Z,19.35
2023-04-09T03:35:52.442Z,22.65
2023-04-09T03:38:19.576Z,22.13
2023-04-09T03:40:45.899Z,20.75
2023-04-09T03:43:12.250Z,19.42
2023-04-09T03:45:38.577Z,21.45
2023-04-09T03:48:05.090Z,20.77
2023-04-09T03:50:31.504Z,20.48
2023-04-09T03:52:57.878Z,21.52
2023-04-09T03:55:24.174Z,21.42
2023-04-09T03:57:50.665Z,20.45
2023-04-09T04:00:17.268Z,20.63
2023-04-09T04:02:43.691Z,18.20
2023-04-09T04:05:11.644Z,19.33
2023-04-09T04:07:38.070Z,20.63
2023-04-09T04:10:07.921Z,18.88
2023-04-09T04:12:34.321Z,19.15
2023-04-09T04:15:01.052Z,20.13
2023-04-09T04:17:27.443Z,19.23
2023-04-09T04:19:53.757Z,19.58
2023-04-09T04:22:20.164Z,19.88
2023-04-09T04:24:46.661Z,20.15
2023-04-09T04:27:12.957Z,18.90
2023-04-09T04:29:39.630Z,18.90
2023-04-09T04:32:06.037Z,19.08
2023-04-09T04:34:32.448Z,18.52
2023-04-09T04:36:58.802Z,20.67
2023-04-09T04:39:25.731Z,19.40
2023-04-09T04:41:52.040Z,19.52
2023-04-09T04:44:18.439Z,19.65
2023-04-09T04:46:44.717Z,18.70
2023-04-09T04:49:11.021Z,20.13
2023-04-09T04:51:37.289Z,20.10
2023-04-09T04:54:03.677Z,19.90
2023-04-09T04:56:30.009Z,20.50
2023-04-09T04:58:56.300Z,19.05
2023-04-09T05:01:22.625Z,18.38
2023-04-09T05:03:49.370Z,21.30
2023-04-09T05:06:15.901Z,20.13
2023-04-09T05:08:42.200Z,19.10
2023-04-09T05:11:11.223Z,19.08
2023-04-09T05:13:37.518Z,19.13
2023-04-09T05:16:03.925Z,21.10
2023-04-09T05:18:30.226Z,19.30
2023-04-09T05:20:56.555Z,20.55
2023-04-09T05:23:22.904Z,18.48
2023-04-09T05:25:49.804Z,19.35
2023-04-09T05:28:16.908Z,20.33
2023-04-09T05:30:47.049Z,19.15
2023-04-09T05:33:13.376Z,18.38
2023-04-09T05:35:39.944Z,18.60
2023-04-09T05:38:06.506Z,18.90
2023-04-09T05:40:32.862Z,18.63
2023-04-09T05:42:59.112Z,20.35
2023-04-09T05:45:25.876Z,18.65
2023-04-09T05:47:52.245Z,18.90
2023-04-09T05:50:18.618Z,19.35
2023-04-09T05:52:44.907Z,19.83
2023-04-09T05:55:14.096Z,22.08
2023-04-09T05:57:40.720Z,23.27
2023-04-09T06:00:08.131Z,21.35
2023-04-09T06:02:34.415Z,22.77
2023-04-09T06:05:00.879Z,23.10
2023-04-09T06:07:27.402Z,23.75
2023-04-09T06:09:54.959Z,24.63
2023-04-09T06:12:21.487Z,24.20
2023-04-09T06:14:48.504Z,24.35
2023-04-09T06:17:14.835Z,24.65
2023-04-09T06:19:41.148Z,22.88
2023-04-09T06:22:09.665Z,22.60
2023-04-09T06:24:36.062Z,23.17
2023-04-09T06:27:02.334Z,23.27
2023-04-09T06:29:29.817Z,23.85
2023-04-09T06:31:56.152Z,23.95
2023-04-09T06:34:22.492Z,22.52
2023-04-09T06:36:48.835Z,23.30
2023-04-09T06:39:15.275Z,22.95
2023-04-09T06:41:41.604Z,23.73
2023-04-09T06:44:07.883Z,22.98
2023-04-09T06:46:34.206Z,20.27
2023-04-09T06:49:00.647Z,21.88
2023-04-09T06:51:27.178Z,21.42
2023-04-09T06:53:53.654Z,21.42
2023-04-09T06:56:20.290Z,21.92
2023-04-09T06:58:47.256Z,21.38
2023-04-09T07:01:13.828Z,20.63
2023-04-09T07:03:40.788Z,20.42
2023-04-09T07:06:07.280Z,18.98
2023-04-09T07:08:33.622Z,19.52
2023-04-09T07:10:59.975Z,19.80
2023-04-09T07:13:26.308Z,18.17
2023-04-09T07:15:52.737Z,18.58
2023-04-09T07:18:19.949Z,19.15
2023-04-09T07:20:46.207Z,18.13
2023-04-09T07:23:12.781Z,18.95
2023-04-09T07:25:39.145Z,16.95
2023-04-09T07:28:05.616Z,17.67
2023-04-09T07:30:31.994Z,17.38
2023-04-09T07:32:58.708Z,17.75
2023-04-09T07:35:25.375Z,18.30
2023-04-09T07:37:51.772Z,17.90
2023-04-09T07:40:18.281Z,18.73
2023-04-09T07:42:44.613Z,16.95
2023-04-09T07:45:11.224Z,17.60
2023-04-09T07:47:38.755Z,17.48
2023-04-09T07:50:05.254Z,16.70
2023-04-09T07:52:31.591Z,16.30
2023-04-09T07:54:58.009Z,16.63
2023-04-09T07:57:24.338Z,17.00
2023-04-09T07:59:51.105Z,16.50
2023-04-09T08:02:17.785Z,16.42
2023-04-09T08:04:44.366Z,15.63
2023-04-09T08:07:11.466Z,16.08
2023-04-09T08:09:37.795Z,15.05
2023-04-09T08:12:04.346Z,16.00
2023-04-09T08:14:30.637Z,17.13
2023-04-09T08:16:56.997Z,15.52
2023-04-09T08:19:23.393Z,16.20
2023-04-09T08:21:49.807Z,17.10
2023-04-09T08:24:16.335Z,16.27
2023-04-09T08:26:42.842Z,16.75
2023-04-09T08:29:10.076Z,16.35
2023-04-09T08:31:37.324Z,16.17
2023-04-09T08:34:04.091Z,18.45
2023-04-09T08:36:31.694Z,17.88
2023-04-09T08:38:58.531Z,17.38
2023-04-09T08:41:25.658Z,17.65
2023-04-09T08:43:58.298Z,18.23
2023-04-09T08:46:26.221Z,17.77
2023-04-09T08:48:53.265Z,16.73
2023-04-09T08:51:21.084Z,18.92
2023-04-09T08:53:48.161Z,17.48
2023-04-09T08:56:14.738Z,17.98
2023-04-09T08:58:44.820Z,18.05
2023-04-09T09:01:24.414Z,19.77
2023-04-09T09:03:56.422Z,19.73
2023-04-09T09:06:23.870Z,18.90
2023-04-09T09:09:10.666Z,19.40
2023-04-09T09:11:43.877Z,19.65
2023-04-09T09:14:10.127Z,20.30
2023-04-09T09:16:40.281Z,21.58
2023-04-09T09:19:07.148Z,20.83
2023-04-09T09:21:34.323Z,19.52
2023-04-09T09:24:00.722Z,22.52
2023-04-09T09:26:28.934Z,20.88
2023-04-09T09:28:56.106Z,22.73
2023-04-09T09:31:23.031Z,22.80
2023-04-09T09:33:50.571Z,22.17
2023-04-09T09:36:31.582Z,20.70
2023-04-09T09:38:58.607Z,20.35
2023-04-09T09:41:26.005Z,21.25
2023-04-09T09:43:52.552Z,21.13
2023-04-09T09:46:18.988Z,20.92
2023-04-09T09:48:49.718Z,20.50
2023-04-09T09:51:16.304Z,20.63
2023-04-09T09:53:47.721Z,21.20
2023-04-09T09:56:16.947Z,21.45
2023-04-09T09:58:46.347Z,21.23
2023-04-09T10:01:13.571Z,20.52
2023-04-09T10:03:42.528Z,22.00
2023-04-09T10:06:09.197Z,20.95
2023-04-09T10:08:38.060Z,20.30
2023-04-09T10:11:05.462Z,21.08
2023-04-09T10:13:46.181Z,20.42
2023-04-09T10:16:13.107Z,20.73
2023-04-09T10:18:42.170Z,19.77
2023-04-09T10:21:11.875Z,19.83
2023-04-09T10:23:38.105Z,19.58
2023-04-09T10:26:05.789Z,19.33
2023-04-09T10:28:32.249Z,19.38
2023-04-09T10:30:59.112Z,19.75
2023-04-09T10:33:26.994Z,19.60
2023-04-09T10:36:01.079Z,17.58
2023-04-09T10:38:33.419Z,18.88
2023-04-09T10:40:59.906Z,17.92
2023-04-09T10:43:29.968Z,17.08
2023-04-09T10:45:57.572Z,17.00
2023-04-09T10:48:26.145Z,16.88
2023-04-09T10:50:52.590Z,17.08
2023-04-09T10:53:23.882Z,16.60
2023-04-09T10:55:51.226Z,17.80
2023-04-09T10:58:17.544Z,18.08
2023-04-09T11:00:45.229Z,15.85
2023-04-09T11:03:14.455Z,15.57
2023-04-09T11:05:42.412Z,16.30
2023-04-09T11:08:12.458Z,15.98
2023-04-09T11:10:39.722Z,16.83
2023-04-09T11:13:06.084Z,15.45
2023-04-09T11:15:34.413Z,16.25
2023-04-09T11:18:02.268Z,14.98
2023-04-09T11:20:30.628Z,14.40
2023-04-09T11:22:57.168Z,15.43
2023-04-09T11:25:25.231Z,15.20
2023-04-09T11:27:51.806Z,15.02
2023-04-09T11:30:18.486Z,13.02
2023-04-09T11:32:45.019Z,12.40
2023-04-09T11:35:15.088Z,12.75
2023-04-09T11:37:42.175Z,12.65
2023-04-09T11:40:18.503Z,12.45
2023-04-09T11:42:45.633Z,12.07
2023-04-09T11:45:12.283Z,11.57
2023-04-09T11:47:42.439Z,12.48
2023-04-09T11:50:09.662Z,10.20
2023-04-09T11:52:36.269Z,13.40
2023-04-09T11:55:04.298Z,9.77
2023-04-09T11:57:41.820Z,10.48
2023-04-09T12:00:08.928Z,10.60
2023-04-09T12:02:37.511Z,9.48
2023-04-09T12:05:04.558Z,9.68
2023-04-09T12:07:34.272Z,9.52
2023-04-09T12:10:04.204Z,9.05
2023-04-09T12:12:30.644Z,9.63
2023-04-09T12:14:59.036Z,9.77
2023-04-09T12:17:25.759Z,8.70
2023-04-09T12:19:52.064Z,8.45
2023-04-09T12:22:18.557Z,8.15
2023-04-09T12:24:44.950Z,9.40
2023-04-09T12:27:11.234Z,16.02
2023-04-09T12:29:37.510Z,13.05
2023-04-09T12:32:03.894Z,10.82
2023-04-09T12:34:30.234Z,9.73
2023-04-09T12:36:56.502Z,8.15
2023-04-09T12:39:22.857Z,7.97
2023-04-09T12:41:49.119Z,8.35
2023-04-09T12:44:15.383Z,9.02
2023-04-09T12:46:41.646Z,8.90
2023-04-09T12:49:07.972Z,8.77
2023-04-09T12:51:34.312Z,8.75
2023-04-09T12:54:00.834Z,8.43
2023-04-09T12:56:29.396Z,8.13
2023-04-09T12:58:56.189Z,8.25
2023-04-09T13:01:22.554Z,8.20
2023-04-09T13:03:49.173Z,8.07
2023-04-09T13:06:15.850Z,9.00
2023-04-09T13:08:42.212Z,8.55
2023-04-09T13:11:08.574Z,8.98
2023-04-09T13:13:34.843Z,8.82
2023-04-09T13:16:02.136Z,9.95
2023-04-09T13:18:28.861Z,8.82
2023-04-09T13:20:55.396Z,9.30
2023-04-09T13:23:21.691Z,8.95
2023-04-09T13:25:48.005Z,8.98
2023-04-09T13:28:14.472Z,8.15
2023-04-09T13:30:40.788Z,9.50
2023-04-09T13:33:07.153Z,9.50
2023-04-09T13:35:33.620Z,9.02
2023-04-09T13:38:00.877Z,8.70
2023-04-09T13:40:27.398Z,8.45
2023-04-09T13:42:53.726Z,8.50
2023-04-09T13:45:21.026Z,8.63
2023-04-09T13:47:47.441Z,9.57
2023-04-09T13:50:13.807Z,8.45
2023-04-09T13:52:40.182Z,8.43
2023-04-09T13:55:07.540Z,8.57
2023-04-09T13:57:33.851Z,8.05
2023-04-09T14:00:04.117Z,9.55
2023-04-09T14:02:30.760Z,8.70
2023-04-09T14:04:57.254Z,8.02
2023-04-09T14:07:23.652Z,9.52
2023-04-09T14:09:51.245Z,9.43
2023-04-09T14:12:17.626Z,8.60
2023-04-09T14:14:43.945Z,9.23
2023-04-09T14:17:10.280Z,7.88
2023-04-09T14:19:36.611Z,8.80
2023-04-09T14:22:03.121Z,7.97
2023-04-09T14:24:29.968Z,9.20
2023-04-09T14:26:56.776Z,9.00
2023-04-09T14:29:23.050Z,9.60
2023-04-09T14:31:49.651Z,8.70
2023-04-09T14:34:16.756Z,8.63
2023-04-09T14:36:43.125Z,7.72
2023-04-09T14:39:09.485Z,8.50
2023-04-09T14:41:36.685Z,8.90
2023-04-09T14:44:03.016Z,7.78
2023-04-09T14:46:29.311Z,7.97
2023-04-09T14:48:55.675Z,7.90
2023-04-09T14:51:22.109Z,7.65
2023-04-09T14:53:48.624Z,6.80
2023-04-09T14:56:15.050Z,7.20
2023-04-09T14:58:41.342Z,7.80
2023-04-09T15:01:07.712Z,8.02
2023-04-09T15:03:34.203Z,8.13
2023-04-09T15:06:00.619Z,8.02
2023-04-09T15:08:27.135Z,8.60
2023-04-09T15:10:53.440Z,8.35
2023-04-09T15:13:19.700Z,8.57
2023-04-09T15:15:46.321Z,7.70
2023-04-09T15:18:12.574Z,8.88
2023-04-09T15:20:39.199Z,8.55
2023-04-09T15:23:05.749Z,8.95
2023-04-09T15:25:32.684Z,9.27
2023-04-09T15:27:59.292Z,9.10
2023-04-09T15:30:26.517Z,9.48
2023-04-09T15:32:52.973Z,8.52
2023-04-09T15:35:24.824Z,9.38
2023-04-09T15:37:51.307Z,9.43
2023-04-09T15:40:18.140Z,8.05
2023-04-09T15:42:44.517Z,9.25
2023-04-09T15:45:11.057Z,9.23
2023-04-09T15:47:37.375Z,7.82
2023-04-09T15:50:03.812Z,8.82
2023-04-09T15:52:30.448Z,9.30
2023-04-09T15:54:56.897Z,8.13
2023-04-09T15:57:23.665Z,8.15
2023-04-09T15:59:50.099Z,8.25
2023-04-09T16:02:16.480Z,8.40
2023-04-09T16:04:42.895Z,8.93
2023-04-09T16:07:09.850Z,8.40
2023-04-09T16:09:36.455Z,7.85
2023-04-09T16:12:02.940Z,7.72
2023-04-09T16:14:30.137Z,7.20
2023-04-09T16:16:56.586Z,7.78
2023-04-09T16:19:24.608Z,7.95
2023-04-09T16:21:50.904Z,7.47
2023-04-09T16:24:17.287Z,7.57
2023-04-09T16:26:45.649Z,7.40
2023-04-09T16:29:12.612Z,8.40
2023-04-09T16:31:41.756Z,8.25
2023-04-09T16:34:08.097Z,9.38
2023-04-09T16:36:36.994Z,7.75
2023-04-09T16:39:06.608Z,7.13
2023-04-09T16:41:34.344Z,8.05
2023-04-09T16:44:01.979Z,7.95
2023-04-09T16:46:29.032Z,7.82
2023-04-09T16:48:55.589Z,7.70
2023-04-09T16:51:21.850Z,7.40
2023-04-09T16:53:48.127Z,8.00
2023-04-09T16:56:15.674Z,8.32
2023-04-09T16:58:42.055Z,8.27
2023-04-09T17:01:08.391Z,7.85
2023-04-09T17:03:34.888Z,8.07
2023-04-09T17:06:01.750Z,8.20
2023-04-09T17:08:28.030Z,8.48
2023-04-09T17:11:01.731Z,8.48
2023-04-09T17:13:29.426Z,7.82
2023-04-09T17:15:56.099Z,7.63
2023-04-09T17:18:22.411Z,8.00
2023-04-09T17:20:49.237Z,8.15
2023-04-09T17:23:15.582Z,7.88
2023-04-09T17:25:42.274Z,8.30
2023-04-09T17:28:09.206Z,8.15
2023-04-09T17:30:36.179Z,8.02
2023-04-09T17:33:03.575Z,8.60
2023-04-09T17:35:32.589Z,8.20
2023-04-09T17:37:59.084Z,8.25
2023-04-09T17:40:25.377Z,9.25
2023-04-09T17:42:52.054Z,8.82
2023-04-09T17:45:18.442Z,8.40
2023-04-09T17:47:45.621Z,8.38
2023-04-09T17:50:12.313Z,8.13
2023-04-09T17:52:39.067Z,8.00
2023-04-09T17:55:08.910Z,8.25
2023-04-09T17:57:35.843Z,8.57
2023-04-09T18:00:04.068Z,8.50
2023-04-09T18:02:34.716Z,8.15
2023-04-09T18:05:02.709Z,8.52
2023-04-09T18:07:33.933Z,9.15
2023-04-09T18:10:01.688Z,8.70
2023-04-09T18:12:28.148Z,8.88
2023-04-09T18:14:54.537Z,9.07
2023-04-09T18:17:21.124Z,9.00
2023-04-09T18:19:47.571Z,9.27
2023-04-09T18:22:13.929Z,8.52
2023-04-09T18:24:40.576Z,8.05
2023-04-09T18:27:06.975Z,8.48
2023-04-09T18:29:33.277Z,8.18
2023-04-09T18:32:00.031Z,8.77
2023-04-09T18:34:26.479Z,8.80
2023-04-09T18:36:53.568Z,9.07
2023-04-09T18:39:20.660Z,8.93
2023-04-09T18:41:47.060Z,8.25
2023-04-09T18:44:13.408Z,9.07
2023-04-09T18:46:39.894Z,9.10
2023-04-09T18:49:06.215Z,9.63
2023-04-09T18:51:32.874Z,8.65
2023-04-09T18:54:00.633Z,9.88
2023-04-09T18:56:29.180Z,9.73
2023-04-09T18:58:55.690Z,8.52
2023-04-09T19:01:23.124Z,9.02
2023-04-09T19:03:49.869Z,10.38
2023-04-09T19:06:18.062Z,10.30
2023-04-09T19:08:44.822Z,9.68
2023-04-09T19:11:11.301Z,9.90
2023-04-09T19:13:37.603Z,9.23
2023-04-09T19:16:04.338Z,10.13
2023-04-09T19:18:31.279Z,9.32
2023-04-09T19:20:58.124Z,9.50
2023-04-09T19:23:24.705Z,9.70
2023-04-09T19:25:52.352Z,10.75
2023-04-09T19:28:18.864Z,11.07
2023-04-09T19:30:45.226Z,11.05
2023-04-09T19:33:11.564Z,11.45
2023-04-09T19:35:40.628Z,11.27
2023-04-09T19:38:07.465Z,10.57
2023-04-09T19:40:33.751Z,11.93
2023-04-09T19:43:00.469Z,12.18
2023-04-09T19:45:27.419Z,11.75
2023-04-09T19:47:55.504Z,13.23
2023-04-09T19:50:22.354Z,12.05
2023-04-09T19:52:48.682Z,12.68
2023-04-09T19:55:15.016Z,12.95
2023-04-09T19:57:43.528Z,12.90
2023-04-09T20:00:10.091Z,13.02
2023-04-09T20:02:37.683Z,14.35
2023-04-09T20:05:04.237Z,13.73
2023-04-09T20:07:31.393Z,14.15
2023-04-09T20:09:57.662Z,13.52
2023-04-09T20:12:28.223Z,13.32
2023-04-09T20:14:54.933Z,12.82
2023-04-09T20:17:21.439Z,12.75
2023-04-09T20:19:47.713Z,13.38
2023-04-09T20:22:13.954Z,12.48
2023-04-09T20:24:40.899Z,12.75
2023-04-09T20:27:07.182Z,12.25
2023-04-09T20:29:33.851Z,12.73
2023-04-09T20:32:00.946Z,12.77
2023-04-09T20:34:27.533Z,12.73
2023-04-09T20:36:54.247Z,13.00
2023-04-09T20:39:21.673Z,13.50
2023-04-09T20:41:51.067Z,13.13
2023-04-09T20:44:17.383Z,12.40
2023-04-09T20:46:43.686Z,13.10
2023-04-09T20:49:10.051Z,13.38
2023-04-09T20:51:36.858Z,13.88
2023-04-09T20:54:04.084Z,15.45
2023-04-09T20:56:30.475Z,14.15
2023-04-09T20:58:59.968Z,12.85
2023-04-09T21:01:29.610Z,12.65
2023-04-09T21:03:56.848Z,13.13
2023-04-09T21:06:23.288Z,12.55
2023-04-09T21:08:49.528Z,12.60
2023-04-09T21:11:16.028Z,12.85
2023-04-09T21:13:54.072Z,13.57
2023-04-09T21:16:21.435Z,12.73
2023-04-09T21:18:48.721Z,13.77
2023-04-09T21:21:15.539Z,12.27
2023-04-09T21:23:42.017Z,12.30
2023-04-09T21:26:08.986Z,12.38
2023-04-09T21:28:35.303Z,12.48
2023-04-09T21:31:01.872Z,12.77
2023-04-09T21:33:30.014Z,12.10
2023-04-09T21:35:57.111Z,12.68
2023-04-09T21:38:23.649Z,12.93
2023-04-09T21:40:50.014Z,13.85
2023-04-09T21:43:16.604Z,12.32
2023-04-09T21:45:43.157Z,12.98
2023-04-09T21:48:09.503Z,13.80
2023-04-09T21:50:35.998Z,14.18
2023-04-09T21:53:03.244Z,13.68
2023-04-09T21:55:29.637Z,14.27
2023-04-09T21:57:56.188Z,14.15
2023-04-09T22:00:22.579Z,14.20
2023-04-09T22:02:49.153Z,13.80
2023-04-09T22:05:15.594Z,13.55
2023-04-09T22:07:42.547Z,14.13
2023-04-09T22:10:09.148Z,14.35
2023-04-09T22:12:37.090Z,13.73
2023-04-09T22:15:04.677Z,14.85
2023-04-09T22:17:31.427Z,13.52
2023-04-09T22:19:58.470Z,14.45
2023-04-09T22:22:24.770Z,13.90
2023-04-09T22:24:51.525Z,13.25
2023-04-09T22:27:17.794Z,15.10
2023-04-09T22:29:44.126Z,17.30
2023-04-09T22:32:10.636Z,17.55
2023-04-09T22:34:37.095Z,18.92
2023-04-09T22:37:03.419Z,17.15
2023-04-09T22:39:30.908Z,17.05
2023-04-09T22:41:58.309Z,18.02
2023-04-09T22:44:24.844Z,16.60
2023-04-09T22:46:51.206Z,16.20
2023-04-09T22:49:17.634Z,17.00
2023-04-09T22:51:43.936Z,17.92
2023-04-09T22:54:10.412Z,17.67
2023-04-09T22:56:36.679Z,16.15
2023-04-09T22:59:03.019Z,16.08
2023-04-09T23:01:29.642Z,15.63
2023-04-09T23:03:56.222Z,15.57
2023-04-09T23:06:22.846Z,14.55
2023-04-09T23:08:49.375Z,14.50
2023-04-09T23:11:15.706Z,14.57
2023-04-09T23:13:42.037Z,15.20
2023-04-09T23:16:09.147Z,14.18
2023-04-09T23:18:36.286Z,14.73
2023-04-09T23:21:06.554Z,15.10
2023-04-09T23:23:33.582Z,14.27
2023-04-09T23:26:00.525Z,14.35
2023-04-09T23:28:26.857Z,15.15
2023-04-09T23:30:53.194Z,14.52
2023-04-09T23:33:19.719Z,15.55
2023-04-09T23:35:46.680Z,15.00
2023-04-09T23:38:13.149Z,14.70
2023-04-09T23:40:39.488Z,14.52
2023-04-09T23:43:05.941Z,14.30
2023-04-09T23:45:32.234Z,15.68
2023-04-09T23:47:58.549Z,14.90
2023-04-09T23:50:24.935Z,14.30
2023-04-09T23:52:51.731Z,14.13
2023-04-09T23:55:18.064Z,14.60
2023-04-09T23:57:44.907Z,14.02
